Modern Express — H9DG — position and weather

sailwx.info

Track history (hours):
 
Tides and Currents Weather Stations Pressure Air Temp Water Temp Dewpoint Dewpoint Depression Visibility Wind Speed Wind Dir Waves Ship Positions

Modern Express

Last reported at 2014-Jul-23 06:09 UTC. Time now 2014-Jul-23 13:33 UTC.
Position N 38°53' W 009°53'.

Length 164 m; beam 28 m.

Type: Cargo ship. MMSI: 356187000.

Date/timePositionNaut miles runAvg speedWind from/ knotsBaromVisibWave heightAir tempDewpointWater temp
2014-Jul-23 06:09N 38°53' W 009°53'1215.1
2014-Jul-23 05:20N 38°41' W 009°52'1215.4
2014-Jul-23 04:32N 38°29' W 009°52'1515.7
2014-Jul-23 03:33N 38°13' W 009°55'1514.9
2014-Jul-23 02:33N 37°59' W 009°57'1515.0
2014-Jul-23 01:33N 37°44' W 009°59'1515.0
2014-Jul-23 00:34N 37°29' W 010°00'1514.9
2014-Jul-22 23:33N 37°14' W 010°02'1514.9
2014-Jul-22 22:33N 36°59' W 010°03'1515.1
2014-Jul-22 21:33N 36°44' W 010°04'1515.1
2014-Jul-22 20:33N 36°29' W 010°07'1515.1
2014-Jul-22 19:33N 36°15' W 010°14'1515.1
2014-Jul-22 18:33N 36°01' W 010°20'1515.1
2014-Jul-22 17:32N 35°46' W 010°25'1515.3
2014-Jul-22 16:33N 35°31' W 010°31'1615.1
2014-Jul-22 15:28N 35°16' W 010°37'1615.0
2014-Jul-22 14:24N 35°01' W 010°43'4515.3
2014-Jul-22 11:26N 34°18' W 010°60'1415.3
2014-Jul-22 10:29N 34°04' W 011°06'1715.6
2014-Jul-22 09:26N 33°48' W 011°12'3215.5
2014-Jul-22 07:22N 33°18' W 011°26'9015.4
2014-Jul-22 01:33N 31°54' W 012°02'  
Track history (hours):
 
Tides and Currents Weather Stations Pressure Air Temp Water Temp Dewpoint Dewpoint Depression Visibility Wind Speed Wind Dir Waves Ship Positions

Modern Express

Last reported at 2014-Jul-23 06:09 UTC. Time now 2014-Jul-23 13:33 UTC.
Position N 38°53' W 009°53'.

Length 164 m; beam 28 m.

Type: Cargo ship. MMSI: 356187000.

Date/timePositionNaut miles runAvg speedWind from/ knotsBaromVisibWave heightAir tempDewpointWater temp
2014-Jul-23 06:09N 38°53' W 009°53'1215.1
2014-Jul-23 05:20N 38°41' W 009°52'1215.4
2014-Jul-23 04:32N 38°29' W 009°52'1515.7
2014-Jul-23 03:33N 38°13' W 009°55'1514.9
2014-Jul-23 02:33N 37°59' W 009°57'1515.0
2014-Jul-23 01:33N 37°44' W 009°59'1515.0
2014-Jul-23 00:34N 37°29' W 010°00'1514.9
2014-Jul-22 23:33N 37°14' W 010°02'1514.9
2014-Jul-22 22:33N 36°59' W 010°03'1515.1
2014-Jul-22 21:33N 36°44' W 010°04'1515.1
2014-Jul-22 20:33N 36°29' W 010°07'1515.1
2014-Jul-22 19:33N 36°15' W 010°14'1515.1
2014-Jul-22 18:33N 36°01' W 010°20'1515.1
2014-Jul-22 17:32N 35°46' W 010°25'1515.3
2014-Jul-22 16:33N 35°31' W 010°31'1615.1
2014-Jul-22 15:28N 35°16' W 010°37'1615.0
2014-Jul-22 14:24N 35°01' W 010°43'4515.3
2014-Jul-22 11:26N 34°18' W 010°60'1415.3
2014-Jul-22 10:29N 34°04' W 011°06'1715.6
2014-Jul-22 09:26N 33°48' W 011°12'3215.5
2014-Jul-22 07:22N 33°18' W 011°26'9015.4
2014-Jul-22 01:33N 31°54' W 012°02'  

Dump ship's entire track history